sensor_id;sensor_type;location;lat;lon;timestamp;P1;durP1;ratioP1;P2;durP2;ratioP2
28266;SDS011;15525;45.568;5.448;2022-09-12T00:01:55;3.00;;;1.90;;
28266;SDS011;15525;45.568;5.448;2022-09-12T00:04:20;2.28;;;1.83;;
28266;SDS011;15525;45.568;5.448;2022-09-12T00:06:46;4.10;;;1.88;;
28266;SDS011;15525;45.568;5.448;2022-09-12T00:09:12;2.70;;;1.85;;
28266;SDS011;15525;45.568;5.448;2022-09-12T00:11:39;3.40;;;1.88;;
28266;SDS011;15525;45.568;5.448;2022-09-12T00:14:07;2.22;;;1.77;;
28266;SDS011;15525;45.568;5.448;2022-09-12T00:16:34;3.10;;;2.00;;
28266;SDS011;15525;45.568;5.448;2022-09-12T00:19:01;3.67;;;2.03;;
28266;SDS011;15525;45.568;5.448;2022-09-12T00:21:27;6.03;;;2.13;;
28266;SDS011;15525;45.568;5.448;2022-09-12T00:23:53;3.83;;;2.35;;
28266;SDS011;15525;45.568;5.448;2022-09-12T00:26:20;2.53;;;2.00;;
28266;SDS011;15525;45.568;5.448;2022-09-12T00:28:46;2.75;;;1.60;;
28266;SDS011;15525;45.568;5.448;2022-09-12T00:31:13;2.70;;;1.60;;
28266;SDS011;15525;45.568;5.448;2022-09-12T00:33:41;2.00;;;1.73;;
28266;SDS011;15525;45.568;5.448;2022-09-12T00:36:13;3.33;;;1.77;;
28266;SDS011;15525;45.568;5.448;2022-09-12T00:38:41;4.00;;;2.03;;
28266;SDS011;15525;45.568;5.448;2022-09-12T00:41:09;3.60;;;1.95;;
28266;SDS011;15525;45.568;5.448;2022-09-12T00:43:42;2.25;;;1.90;;
28266;SDS011;15525;45.568;5.448;2022-09-12T00:46:13;2.03;;;1.60;;
28266;SDS011;15525;45.568;5.448;2022-09-12T00:48:48;1.80;;;1.60;;
28266;SDS011;15525;45.568;5.448;2022-09-12T00:51:20;3.92;;;2.08;;
28266;SDS011;15525;45.568;5.448;2022-09-12T00:53:47;3.88;;;2.10;;
28266;SDS011;15525;45.568;5.448;2022-09-12T00:56:15;2.97;;;1.90;;
28266;SDS011;15525;45.568;5.448;2022-09-12T00:59:04;6.03;;;2.03;;
28266;SDS011;15525;45.568;5.448;2022-09-12T01:01:35;2.83;;;1.70;;
28266;SDS011;15525;45.568;5.448;2022-09-12T01:04:02;2.53;;;1.92;;
28266;SDS011;15525;45.568;5.448;2022-09-12T01:06:35;3.00;;;2.00;;
28266;SDS011;15525;45.568;5.448;2022-09-12T01:09:03;4.63;;;2.10;;
28266;SDS011;15525;45.568;5.448;2022-09-12T01:11:35;2.72;;;2.03;;
28266;SDS011;15525;45.568;5.448;2022-09-12T01:14:04;3.42;;;1.90;;
28266;SDS011;15525;45.568;5.448;2022-09-12T01:16:31;2.35;;;1.85;;
28266;SDS011;15525;45.568;5.448;2022-09-12T01:32:24;4.32;;;2.10;;
28266;SDS011;15525;45.568;5.448;2022-09-12T01:37:41;4.32;;;2.33;;
28266;SDS011;15525;45.568;5.448;2022-09-12T01:40:34;2.33;;;1.65;;
28266;SDS011;15525;45.568;5.448;2022-09-12T01:45:57;2.17;;;1.50;;
28266;SDS011;15525;45.568;5.448;2022-09-12T01:48:44;3.55;;;1.95;;
28266;SDS011;15525;45.568;5.448;2022-09-12T01:51:32;6.18;;;1.95;;
28266;SDS011;15525;45.568;5.448;2022-09-12T01:54:06;2.67;;;1.80;;
28266;SDS011;15525;45.568;5.448;2022-09-12T01:56:37;3.00;;;1.60;;
28266;SDS011;15525;45.568;5.448;2022-09-12T02:01:34;2.30;;;1.50;;
28266;SDS011;15525;45.568;5.448;2022-09-12T02:04:17;2.05;;;1.65;;
28266;SDS011;15525;45.568;5.448;2022-09-12T02:12:46;3.15;;;1.63;;
28266;SDS011;15525;45.568;5.448;2022-09-12T02:15:17;2.72;;;1.67;;
28266;SDS011;15525;45.568;5.448;2022-09-12T02:17:46;3.78;;;2.10;;
28266;SDS011;15525;45.568;5.448;2022-09-12T02:22:46;1.98;;;1.58;;
28266;SDS011;15525;45.568;5.448;2022-09-12T02:25:14;3.85;;;1.85;;
28266;SDS011;15525;45.568;5.448;2022-09-12T02:30:11;3.03;;;1.60;;
28266;SDS011;15525;45.568;5.448;2022-09-12T02:38:08;5.03;;;1.67;;
28266;SDS011;15525;45.568;5.448;2022-09-12T02:40:39;2.45;;;1.50;;
28266;SDS011;15525;45.568;5.448;2022-09-12T02:43:05;6.07;;;1.80;;
28266;SDS011;15525;45.568;5.448;2022-09-12T02:45:31;1.95;;;1.63;;
28266;SDS011;15525;45.568;5.448;2022-09-12T02:48:02;1.90;;;1.70;;
28266;SDS011;15525;45.568;5.448;2022-09-12T02:50:29;2.53;;;1.60;;
28266;SDS011;15525;45.568;5.448;2022-09-12T02:52:55;2.60;;;1.65;;
28266;SDS011;15525;45.568;5.448;2022-09-12T02:55:27;5.10;;;1.50;;
28266;SDS011;15525;45.568;5.448;2022-09-12T02:57:55;2.00;;;1.50;;
28266;SDS011;15525;45.568;5.448;2022-09-12T03:00:20;3.35;;;1.65;;
28266;SDS011;15525;45.568;5.448;2022-09-12T03:05:31;4.43;;;1.50;;
28266;SDS011;15525;45.568;5.448;2022-09-12T03:08:12;2.88;;;1.70;;
28266;SDS011;15525;45.568;5.448;2022-09-12T03:16:19;1.98;;;1.65;;
28266;SDS011;15525;45.568;5.448;2022-09-12T03:21:39;3.17;;;1.60;;
28266;SDS011;15525;45.568;5.448;2022-09-12T03:26:49;3.67;;;1.90;;
28266;SDS011;15525;45.568;5.448;2022-09-12T03:29:17;2.92;;;1.50;;
28266;SDS011;15525;45.568;5.448;2022-09-12T03:31:48;3.53;;;1.67;;
28266;SDS011;15525;45.568;5.448;2022-09-12T03:34:18;3.35;;;1.85;;
28266;SDS011;15525;45.568;5.448;2022-09-12T03:36:46;3.53;;;1.70;;
28266;SDS011;15525;45.568;5.448;2022-09-12T03:39:11;4.35;;;1.73;;
28266;SDS011;15525;45.568;5.448;2022-09-12T03:41:37;2.83;;;1.85;;
28266;SDS011;15525;45.568;5.448;2022-09-12T03:44:03;2.60;;;1.73;;
28266;SDS011;15525;45.568;5.448;2022-09-12T03:46:28;4.60;;;1.98;;
28266;SDS011;15525;45.568;5.448;2022-09-12T03:48:54;1.88;;;1.67;;
28266;SDS011;15525;45.568;5.448;2022-09-12T03:51:19;2.10;;;1.77;;
28266;SDS011;15525;45.568;5.448;2022-09-12T03:53:45;2.20;;;1.90;;
28266;SDS011;15525;45.568;5.448;2022-09-12T03:56:10;2.20;;;1.70;;
28266;SDS011;15525;45.568;5.448;2022-09-12T03:58:36;4.30;;;1.80;;
28266;SDS011;15525;45.568;5.448;2022-09-12T04:01:35;3.50;;;1.60;;
28266;SDS011;15525;45.568;5.448;2022-09-12T04:03:53;1.98;;;1.73;;
28266;SDS011;15525;45.568;5.448;2022-09-12T04:06:20;3.35;;;2.20;;
28266;SDS011;15525;45.568;5.448;2022-09-12T04:08:47;3.67;;;2.50;;
28266;SDS011;15525;45.568;5.448;2022-09-12T04:11:16;4.65;;;2.35;;
28266;SDS011;15525;45.568;5.448;2022-09-12T04:13:43;4.82;;;2.40;;
28266;SDS011;15525;45.568;5.448;2022-09-12T04:16:10;2.08;;;1.88;;
28266;SDS011;15525;45.568;5.448;2022-09-12T04:18:36;2.55;;;2.00;;
28266;SDS011;15525;45.568;5.448;2022-09-12T04:21:06;2.90;;;2.03;;
28266;SDS011;15525;45.568;5.448;2022-09-12T04:23:33;2.92;;;1.80;;
28266;SDS011;15525;45.568;5.448;2022-09-12T04:26:00;3.45;;;2.22;;
28266;SDS011;15525;45.568;5.448;2022-09-12T04:28:27;3.90;;;2.05;;
28266;SDS011;15525;45.568;5.448;2022-09-12T04:30:53;4.63;;;2.15;;
28266;SDS011;15525;45.568;5.448;2022-09-12T04:33:19;5.13;;;2.15;;
28266;SDS011;15525;45.568;5.448;2022-09-12T04:35:45;4.85;;;2.10;;
28266;SDS011;15525;45.568;5.448;2022-09-12T04:38:11;3.45;;;2.13;;
28266;SDS011;15525;45.568;5.448;2022-09-12T04:40:37;4.38;;;2.25;;
28266;SDS011;15525;45.568;5.448;2022-09-12T04:43:02;4.32;;;2.78;;
28266;SDS011;15525;45.568;5.448;2022-09-12T04:45:28;4.93;;;2.55;;
28266;SDS011;15525;45.568;5.448;2022-09-12T04:47:54;5.10;;;2.70;;
28266;SDS011;15525;45.568;5.448;2022-09-12T04:50:19;3.60;;;2.20;;
28266;SDS011;15525;45.568;5.448;2022-09-12T04:52:48;3.42;;;2.25;;
28266;SDS011;15525;45.568;5.448;2022-09-12T04:55:15;4.97;;;2.60;;
28266;SDS011;15525;45.568;5.448;2022-09-12T04:57:40;7.22;;;2.70;;
28266;SDS011;15525;45.568;5.448;2022-09-12T05:00:06;3.95;;;2.65;;
28266;SDS011;15525;45.568;5.448;2022-09-12T05:02:32;3.58;;;2.60;;
28266;SDS011;15525;45.568;5.448;2022-09-12T05:04:58;4.63;;;2.60;;
28266;SDS011;15525;45.568;5.448;2022-09-12T05:07:23;6.07;;;2.90;;
28266;SDS011;15525;45.568;5.448;2022-09-12T05:09:49;4.05;;;3.10;;
28266;SDS011;15525;45.568;5.448;2022-09-12T05:12:14;5.28;;;2.90;;
28266;SDS011;15525;45.568;5.448;2022-09-12T05:14:40;5.45;;;3.10;;
28266;SDS011;15525;45.568;5.448;2022-09-12T05:17:05;5.80;;;2.95;;
28266;SDS011;15525;45.568;5.448;2022-09-12T05:19:31;5.13;;;2.75;;
28266;SDS011;15525;45.568;5.448;2022-09-12T05:21:57;7.15;;;2.85;;
28266;SDS011;15525;45.568;5.448;2022-09-12T05:24:23;3.72;;;2.88;;
28266;SDS011;15525;45.568;5.448;2022-09-12T05:29:24;7.32;;;2.50;;
28266;SDS011;15525;45.568;5.448;2022-09-12T05:31:49;3.40;;;2.22;;
28266;SDS011;15525;45.568;5.448;2022-09-12T05:34:17;8.57;;;2.60;;
28266;SDS011;15525;45.568;5.448;2022-09-12T05:36:44;4.40;;;2.35;;
28266;SDS011;15525;45.568;5.448;2022-09-12T05:39:10;3.75;;;2.05;;
28266;SDS011;15525;45.568;5.448;2022-09-12T05:41:36;5.32;;;2.10;;
28266;SDS011;15525;45.568;5.448;2022-09-12T05:44:03;3.92;;;1.85;;
28266;SDS011;15525;45.568;5.448;2022-09-12T05:46:30;9.38;;;2.30;;
28266;SDS011;15525;45.568;5.448;2022-09-12T05:49:03;4.95;;;2.10;;
28266;SDS011;15525;45.568;5.448;2022-09-12T05:51:31;5.50;;;2.67;;
28266;SDS011;15525;45.568;5.448;2022-09-12T05:54:01;3.00;;;2.25;;
28266;SDS011;15525;45.568;5.448;2022-09-12T05:56:28;7.25;;;2.45;;
28266;SDS011;15525;45.568;5.448;2022-09-12T05:59:17;6.32;;;2.35;;
28266;SDS011;15525;45.568;5.448;2022-09-12T06:01:43;9.57;;;2.30;;
28266;SDS011;15525;45.568;5.448;2022-09-12T06:04:09;4.32;;;1.85;;
28266;SDS011;15525;45.568;5.448;2022-09-12T06:06:39;6.18;;;2.40;;
28266;SDS011;15525;45.568;5.448;2022-09-12T06:09:08;4.75;;;2.13;;
28266;SDS011;15525;45.568;5.448;2022-09-12T06:11:34;8.15;;;2.55;;
28266;SDS011;15525;45.568;5.448;2022-09-12T06:14:01;5.53;;;2.38;;
28266;SDS011;15525;45.568;5.448;2022-09-12T06:16:28;6.45;;;2.00;;
28266;SDS011;15525;45.568;5.448;2022-09-12T06:18:55;2.20;;;2.00;;
28266;SDS011;15525;45.568;5.448;2022-09-12T06:21:25;3.05;;;2.25;;
28266;SDS011;15525;45.568;5.448;2022-09-12T06:23:53;3.80;;;2.17;;
28266;SDS011;15525;45.568;5.448;2022-09-12T06:26:19;2.53;;;1.92;;
28266;SDS011;15525;45.568;5.448;2022-09-12T06:28:47;6.60;;;2.20;;
28266;SDS011;15525;45.568;5.448;2022-09-12T06:31:15;3.13;;;2.35;;
28266;SDS011;15525;45.568;5.448;2022-09-12T06:33:43;3.25;;;2.03;;
28266;SDS011;15525;45.568;5.448;2022-09-12T06:36:32;3.83;;;2.20;;
28266;SDS011;15525;45.568;5.448;2022-09-12T06:39:08;3.80;;;1.73;;
28266;SDS011;15525;45.568;5.448;2022-09-12T06:41:35;5.47;;;2.03;;
28266;SDS011;15525;45.568;5.448;2022-09-12T06:44:02;3.17;;;2.00;;
28266;SDS011;15525;45.568;5.448;2022-09-12T06:46:28;5.50;;;2.03;;
28266;SDS011;15525;45.568;5.448;2022-09-12T06:48:55;3.72;;;1.90;;
28266;SDS011;15525;45.568;5.448;2022-09-12T06:51:21;2.00;;;1.80;;
28266;SDS011;15525;45.568;5.448;2022-09-12T06:53:47;3.83;;;1.88;;
28266;SDS011;15525;45.568;5.448;2022-09-12T06:56:15;5.93;;;1.92;;
28266;SDS011;15525;45.568;5.448;2022-09-12T06:58:43;4.07;;;2.20;;
28266;SDS011;15525;45.568;5.448;2022-09-12T07:01:10;3.75;;;2.03;;
28266;SDS011;15525;45.568;5.448;2022-09-12T07:03:38;2.80;;;1.80;;
28266;SDS011;15525;45.568;5.448;2022-09-12T07:06:05;3.05;;;2.00;;
28266;SDS011;15525;45.568;5.448;2022-09-12T07:08:40;3.90;;;2.00;;
28266;SDS011;15525;45.568;5.448;2022-09-12T07:11:07;5.47;;;2.58;;
28266;SDS011;15525;45.568;5.448;2022-09-12T07:13:45;4.55;;;3.05;;
28266;SDS011;15525;45.568;5.448;2022-09-12T07:16:11;4.85;;;3.08;;
28266;SDS011;15525;45.568;5.448;2022-09-12T07:18:37;4.20;;;2.70;;
28266;SDS011;15525;45.568;5.448;2022-09-12T07:21:04;3.08;;;2.45;;
28266;SDS011;15525;45.568;5.448;2022-09-12T07:23:31;5.47;;;3.45;;
28266;SDS011;15525;45.568;5.448;2022-09-12T07:25:58;4.63;;;2.40;;
28266;SDS011;15525;45.568;5.448;2022-09-12T07:28:25;5.15;;;2.40;;
28266;SDS011;15525;45.568;5.448;2022-09-12T07:30:53;6.22;;;2.33;;
28266;SDS011;15525;45.568;5.448;2022-09-12T07:33:19;8.43;;;3.35;;
28266;SDS011;15525;45.568;5.448;2022-09-12T07:35:46;7.63;;;3.15;;
28266;SDS011;15525;45.568;5.448;2022-09-12T07:38:12;5.00;;;2.70;;
28266;SDS011;15525;45.568;5.448;2022-09-12T07:40:37;6.72;;;2.97;;
28266;SDS011;15525;45.568;5.448;2022-09-12T07:43:02;4.50;;;2.80;;
28266;SDS011;15525;45.568;5.448;2022-09-12T07:45:28;3.97;;;2.22;;
28266;SDS011;15525;45.568;5.448;2022-09-12T07:47:53;3.97;;;2.00;;
28266;SDS011;15525;45.568;5.448;2022-09-12T07:50:19;2.50;;;2.00;;
28266;SDS011;15525;45.568;5.448;2022-09-12T07:52:45;3.45;;;2.10;;
28266;SDS011;15525;45.568;5.448;2022-09-12T07:55:10;5.18;;;1.80;;
28266;SDS011;15525;45.568;5.448;2022-09-12T07:57:35;5.07;;;1.88;;
28266;SDS011;15525;45.568;5.448;2022-09-12T08:00:02;4.03;;;1.90;;
28266;SDS011;15525;45.568;5.448;2022-09-12T08:02:28;2.70;;;1.98;;
28266;SDS011;15525;45.568;5.448;2022-09-12T08:04:54;3.78;;;1.80;;
28266;SDS011;15525;45.568;5.448;2022-09-12T08:07:19;4.63;;;1.92;;
28266;SDS011;15525;45.568;5.448;2022-09-12T08:09:44;2.47;;;1.80;;
28266;SDS011;15525;45.568;5.448;2022-09-12T08:12:10;4.50;;;1.80;;
28266;SDS011;15525;45.568;5.448;2022-09-12T08:14:36;4.95;;;2.00;;
28266;SDS011;15525;45.568;5.448;2022-09-12T08:17:01;2.78;;;1.98;;
28266;SDS011;15525;45.568;5.448;2022-09-12T08:19:26;2.58;;;1.80;;
28266;SDS011;15525;45.568;5.448;2022-09-12T08:21:52;2.40;;;1.85;;
28266;SDS011;15525;45.568;5.448;2022-09-12T08:24:17;6.63;;;1.90;;
28266;SDS011;15525;45.568;5.448;2022-09-12T08:26:43;6.03;;;1.90;;
28266;SDS011;15525;45.568;5.448;2022-09-12T08:29:08;4.22;;;1.85;;
28266;SDS011;15525;45.568;5.448;2022-09-12T08:31:33;2.85;;;1.80;;
28266;SDS011;15525;45.568;5.448;2022-09-12T08:34:01;2.88;;;2.00;;
28266;SDS011;15525;45.568;5.448;2022-09-12T08:36:28;3.85;;;1.90;;
28266;SDS011;15525;45.568;5.448;2022-09-12T08:39:00;2.33;;;1.70;;
28266;SDS011;15525;45.568;5.448;2022-09-12T08:44:19;2.75;;;1.92;;
28266;SDS011;15525;45.568;5.448;2022-09-12T08:54:52;6.13;;;2.60;;
28266;SDS011;15525;45.568;5.448;2022-09-12T08:57:20;3.15;;;2.28;;
28266;SDS011;15525;45.568;5.448;2022-09-12T08:59:46;3.55;;;1.98;;
28266;SDS011;15525;45.568;5.448;2022-09-12T09:16:29;4.05;;;2.30;;
28266;SDS011;15525;45.568;5.448;2022-09-12T09:18:59;4.40;;;2.70;;
28266;SDS011;15525;45.568;5.448;2022-09-12T09:21:36;2.38;;;1.95;;
28266;SDS011;15525;45.568;5.448;2022-09-12T09:24:25;2.63;;;1.98;;
28266;SDS011;15525;45.568;5.448;2022-09-12T09:26:59;3.08;;;1.77;;
28266;SDS011;15525;45.568;5.448;2022-09-12T09:29:39;5.18;;;2.42;;
28266;SDS011;15525;45.568;5.448;2022-09-12T09:32:14;2.67;;;2.20;;
28266;SDS011;15525;45.568;5.448;2022-09-12T09:34:42;3.63;;;2.30;;
28266;SDS011;15525;45.568;5.448;2022-09-12T09:45:42;6.28;;;1.60;;
28266;SDS011;15525;45.568;5.448;2022-09-12T09:51:03;3.50;;;1.73;;
28266;SDS011;15525;45.568;5.448;2022-09-12T09:56:35;3.47;;;1.85;;
28266;SDS011;15525;45.568;5.448;2022-09-12T09:59:46;1.95;;;1.45;;
28266;SDS011;15525;45.568;5.448;2022-09-12T10:01:57;2.60;;;1.90;;
28266;SDS011;15525;45.568;5.448;2022-09-12T10:07:01;3.20;;;1.92;;
28266;SDS011;15525;45.568;5.448;2022-09-12T10:09:31;3.05;;;1.60;;
28266;SDS011;15525;45.568;5.448;2022-09-12T10:11:59;3.75;;;1.95;;
28266;SDS011;15525;45.568;5.448;2022-09-12T10:14:55;3.67;;;1.50;;
28266;SDS011;15525;45.568;5.448;2022-09-12T10:19:55;3.63;;;2.28;;
28266;SDS011;15525;45.568;5.448;2022-09-12T10:22:22;7.32;;;4.40;;
28266;SDS011;15525;45.568;5.448;2022-09-12T10:24:51;9.23;;;5.20;;
28266;SDS011;15525;45.568;5.448;2022-09-12T10:32:29;6.35;;;3.00;;
28266;SDS011;15525;45.568;5.448;2022-09-12T10:35:02;11.95;;;6.78;;
28266;SDS011;15525;45.568;5.448;2022-09-12T10:37:37;6.03;;;2.90;;
28266;SDS011;15525;45.568;5.448;2022-09-12T10:40:12;5.13;;;2.50;;
28266;SDS011;15525;45.568;5.448;2022-09-12T10:42:55;2.30;;;2.10;;
28266;SDS011;15525;45.568;5.448;2022-09-12T10:45:26;2.20;;;1.90;;
28266;SDS011;15525;45.568;5.448;2022-09-12T10:48:21;2.65;;;1.50;;
28266;SDS011;15525;45.568;5.448;2022-09-12T10:50:48;2.28;;;1.75;;
28266;SDS011;15525;45.568;5.448;2022-09-12T11:01:07;2.67;;;1.65;;
28266;SDS011;15525;45.568;5.448;2022-09-12T11:09:22;15.85;;;8.65;;
28266;SDS011;15525;45.568;5.448;2022-09-12T11:17:27;8.43;;;4.97;;
28266;SDS011;15525;45.568;5.448;2022-09-12T11:25:49;1.42;;;1.30;;
28266;SDS011;15525;45.568;5.448;2022-09-12T11:34:14;1.98;;;1.27;;
28266;SDS011;15525;45.568;5.448;2022-09-12T11:42:03;1.50;;;1.20;;
28266;SDS011;15525;45.568;5.448;2022-09-12T11:44:39;4.25;;;1.35;;
28266;SDS011;15525;45.568;5.448;2022-09-12T11:47:18;1.30;;;1.20;;
28266;SDS011;15525;45.568;5.448;2022-09-12T12:06:25;2.58;;;1.50;;
28266;SDS011;15525;45.568;5.448;2022-09-12T12:08:46;1.73;;;1.35;;
28266;SDS011;15525;45.568;5.448;2022-09-12T12:11:13;3.22;;;1.58;;
28266;SDS011;15525;45.568;5.448;2022-09-12T12:13:53;2.25;;;1.27;;
28266;SDS011;15525;45.568;5.448;2022-09-12T12:16:27;3.97;;;1.48;;
28266;SDS011;15525;45.568;5.448;2022-09-12T12:18:56;1.63;;;1.30;;
28266;SDS011;15525;45.568;5.448;2022-09-12T12:34:30;1.48;;;1.00;;
28266;SDS011;15525;45.568;5.448;2022-09-12T12:42:08;2.45;;;1.10;;
28266;SDS011;15525;45.568;5.448;2022-09-12T12:44:52;1.95;;;0.90;;
28266;SDS011;15525;45.568;5.448;2022-09-12T12:47:21;2.45;;;1.00;;
28266;SDS011;15525;45.568;5.448;2022-09-12T12:49:51;1.92;;;1.30;;
28266;SDS011;15525;45.568;5.448;2022-09-12T12:52:20;0.90;;;0.90;;
28266;SDS011;15525;45.568;5.448;2022-09-12T12:54:48;2.10;;;1.05;;
28266;SDS011;15525;45.568;5.448;2022-09-12T12:57:17;3.03;;;1.20;;
28266;SDS011;15525;45.568;5.448;2022-09-12T12:59:51;2.83;;;1.13;;
28266;SDS011;15525;45.568;5.448;2022-09-12T13:02:26;2.35;;;1.10;;
28266;SDS011;15525;45.568;5.448;2022-09-12T13:05:09;0.90;;;0.90;;
28266;SDS011;15525;45.568;5.448;2022-09-12T13:07:42;2.65;;;1.20;;
28266;SDS011;15525;45.568;5.448;2022-09-12T13:10:18;2.75;;;1.20;;
28266;SDS011;15525;45.568;5.448;2022-09-12T13:12:49;1.33;;;1.10;;
28266;SDS011;15525;45.568;5.448;2022-09-12T13:15:58;1.67;;;1.10;;
28266;SDS011;15525;45.568;5.448;2022-09-12T13:18:12;1.23;;;1.02;;
28266;SDS011;15525;45.568;5.448;2022-09-12T13:20:46;1.85;;;1.20;;
28266;SDS011;15525;45.568;5.448;2022-09-12T13:23:29;1.35;;;1.25;;
28266;SDS011;15525;45.568;5.448;2022-09-12T13:25:59;2.58;;;1.10;;
28266;SDS011;15525;45.568;5.448;2022-09-12T13:28:26;3.90;;;1.10;;
28266;SDS011;15525;45.568;5.448;2022-09-12T13:30:58;1.15;;;1.05;;
28266;SDS011;15525;45.568;5.448;2022-09-12T13:44:09;3.05;;;1.10;;
28266;SDS011;15525;45.568;5.448;2022-09-12T13:46:38;1.63;;;1.10;;
28266;SDS011;15525;45.568;5.448;2022-09-12T13:49:06;1.10;;;1.00;;
28266;SDS011;15525;45.568;5.448;2022-09-12T13:51:42;1.20;;;1.10;;
28266;SDS011;15525;45.568;5.448;2022-09-12T13:54:11;2.60;;;1.10;;
28266;SDS011;15525;45.568;5.448;2022-09-12T13:56:45;2.92;;;1.02;;
28266;SDS011;15525;45.568;5.448;2022-09-12T13:59:12;1.80;;;0.98;;
28266;SDS011;15525;45.568;5.448;2022-09-12T14:01:39;2.33;;;1.20;;
28266;SDS011;15525;45.568;5.448;2022-09-12T14:04:09;1.42;;;1.10;;
28266;SDS011;15525;45.568;5.448;2022-09-12T14:07:02;1.05;;;0.95;;
28266;SDS011;15525;45.568;5.448;2022-09-12T14:09:39;3.95;;;1.10;;
28266;SDS011;15525;45.568;5.448;2022-09-12T14:14:55;1.95;;;1.20;;
28266;SDS011;15525;45.568;5.448;2022-09-12T14:17:26;2.42;;;1.00;;
28266;SDS011;15525;45.568;5.448;2022-09-12T14:19:55;1.85;;;1.10;;
28266;SDS011;15525;45.568;5.448;2022-09-12T14:22:27;3.47;;;1.00;;
28266;SDS011;15525;45.568;5.448;2022-09-12T14:24:54;1.27;;;1.00;;
28266;SDS011;15525;45.568;5.448;2022-09-12T14:27:22;1.10;;;1.05;;
28266;SDS011;15525;45.568;5.448;2022-09-12T14:30:23;1.30;;;1.00;;
28266;SDS011;15525;45.568;5.448;2022-09-12T14:35:39;2.35;;;1.20;;
28266;SDS011;15525;45.568;5.448;2022-09-12T14:40:44;2.30;;;1.08;;
28266;SDS011;15525;45.568;5.448;2022-09-12T14:43:31;1.50;;;0.80;;
28266;SDS011;15525;45.568;5.448;2022-09-12T14:46:14;2.55;;;0.90;;
28266;SDS011;15525;45.568;5.448;2022-09-12T14:48:48;1.00;;;0.90;;
28266;SDS011;15525;45.568;5.448;2022-09-12T14:51:20;2.15;;;1.00;;
28266;SDS011;15525;45.568;5.448;2022-09-12T14:53:49;1.23;;;1.00;;
28266;SDS011;15525;45.568;5.448;2022-09-12T14:56:14;1.35;;;1.00;;
28266;SDS011;15525;45.568;5.448;2022-09-12T14:58:40;1.67;;;0.90;;
28266;SDS011;15525;45.568;5.448;2022-09-12T15:08:59;1.52;;;1.00;;
28266;SDS011;15525;45.568;5.448;2022-09-12T15:11:30;1.17;;;1.08;;
28266;SDS011;15525;45.568;5.448;2022-09-12T15:13:57;2.03;;;1.10;;
28266;SDS011;15525;45.568;5.448;2022-09-12T15:16:23;1.17;;;1.00;;
28266;SDS011;15525;45.568;5.448;2022-09-12T15:18:48;1.73;;;1.10;;
28266;SDS011;15525;45.568;5.448;2022-09-12T15:21:17;3.60;;;1.30;;
28266;SDS011;15525;45.568;5.448;2022-09-12T15:23:50;4.15;;;1.52;;
28266;SDS011;15525;45.568;5.448;2022-09-12T15:26:23;2.85;;;1.00;;
28266;SDS011;15525;45.568;5.448;2022-09-12T15:28:51;4.18;;;1.20;;
28266;SDS011;15525;45.568;5.448;2022-09-12T15:31:24;1.00;;;0.90;;
28266;SDS011;15525;45.568;5.448;2022-09-12T15:33:50;1.65;;;1.02;;
28266;SDS011;15525;45.568;5.448;2022-09-12T15:36:16;3.08;;;1.20;;
28266;SDS011;15525;45.568;5.448;2022-09-12T15:38:44;1.08;;;0.98;;
28266;SDS011;15525;45.568;5.448;2022-09-12T15:41:12;4.10;;;1.17;;
28266;SDS011;15525;45.568;5.448;2022-09-12T15:44:05;2.40;;;1.08;;
28266;SDS011;15525;45.568;5.448;2022-09-12T15:46:34;3.60;;;1.23;;
28266;SDS011;15525;45.568;5.448;2022-09-12T15:49:00;1.98;;;1.20;;
28266;SDS011;15525;45.568;5.448;2022-09-12T15:51:25;1.02;;;0.93;;
28266;SDS011;15525;45.568;5.448;2022-09-12T15:53:51;2.83;;;1.10;;
28266;SDS011;15525;45.568;5.448;2022-09-12T15:56:18;1.48;;;1.10;;
28266;SDS011;15525;45.568;5.448;2022-09-12T15:58:45;1.58;;;1.02;;
28266;SDS011;15525;45.568;5.448;2022-09-12T16:01:15;5.30;;;1.45;;
28266;SDS011;15525;45.568;5.448;2022-09-12T16:03:41;2.22;;;1.20;;
28266;SDS011;15525;45.568;5.448;2022-09-12T16:06:07;2.35;;;1.10;;
28266;SDS011;15525;45.568;5.448;2022-09-12T16:08:33;3.67;;;1.40;;
28266;SDS011;15525;45.568;5.448;2022-09-12T16:11:04;3.40;;;1.20;;
28266;SDS011;15525;45.568;5.448;2022-09-12T16:13:32;2.55;;;1.40;;
28266;SDS011;15525;45.568;5.448;2022-09-12T16:15:58;3.97;;;1.25;;
28266;SDS011;15525;45.568;5.448;2022-09-12T16:18:25;2.13;;;1.35;;
28266;SDS011;15525;45.568;5.448;2022-09-12T16:20:52;4.43;;;1.65;;
28266;SDS011;15525;45.568;5.448;2022-09-12T16:23:18;2.75;;;1.30;;
28266;SDS011;15525;45.568;5.448;2022-09-12T16:25:43;1.55;;;1.30;;
28266;SDS011;15525;45.568;5.448;2022-09-12T16:28:09;2.55;;;1.40;;
28266;SDS011;15525;45.568;5.448;2022-09-12T16:30:34;7.28;;;1.40;;
28266;SDS011;15525;45.568;5.448;2022-09-12T16:33:00;2.97;;;1.48;;
28266;SDS011;15525;45.568;5.448;2022-09-12T16:35:26;2.35;;;1.40;;
28266;SDS011;15525;45.568;5.448;2022-09-12T16:37:51;1.95;;;1.45;;
28266;SDS011;15525;45.568;5.448;2022-09-12T16:40:17;1.58;;;1.20;;
28266;SDS011;15525;45.568;5.448;2022-09-12T16:42:46;3.95;;;1.35;;
28266;SDS011;15525;45.568;5.448;2022-09-12T16:45:12;2.40;;;1.30;;
28266;SDS011;15525;45.568;5.448;2022-09-12T16:47:37;1.70;;;1.30;;
28266;SDS011;15525;45.568;5.448;2022-09-12T16:50:03;1.77;;;1.40;;
28266;SDS011;15525;45.568;5.448;2022-09-12T16:52:29;2.20;;;1.50;;
28266;SDS011;15525;45.568;5.448;2022-09-12T16:54:55;1.77;;;1.40;;
28266;SDS011;15525;45.568;5.448;2022-09-12T16:57:21;2.38;;;1.20;;
28266;SDS011;15525;45.568;5.448;2022-09-12T16:59:47;2.40;;;1.30;;
28266;SDS011;15525;45.568;5.448;2022-09-12T17:02:13;11.00;;;1.60;;
28266;SDS011;15525;45.568;5.448;2022-09-12T17:04:39;2.38;;;1.20;;
28266;SDS011;15525;45.568;5.448;2022-09-12T17:07:04;2.88;;;1.63;;
28266;SDS011;15525;45.568;5.448;2022-09-12T17:09:30;4.43;;;1.40;;
28266;SDS011;15525;45.568;5.448;2022-09-12T17:11:55;1.70;;;1.42;;
28266;SDS011;15525;45.568;5.448;2022-09-12T17:14:21;2.67;;;1.48;;
28266;SDS011;15525;45.568;5.448;2022-09-12T17:16:47;2.65;;;1.40;;
28266;SDS011;15525;45.568;5.448;2022-09-12T17:19:15;1.98;;;1.50;;
28266;SDS011;15525;45.568;5.448;2022-09-12T17:21:43;2.25;;;1.38;;
28266;SDS011;15525;45.568;5.448;2022-09-12T17:24:11;5.05;;;1.60;;
28266;SDS011;15525;45.568;5.448;2022-09-12T17:26:37;1.80;;;1.70;;
28266;SDS011;15525;45.568;5.448;2022-09-12T17:29:02;3.03;;;2.03;;
28266;SDS011;15525;45.568;5.448;2022-09-12T17:31:28;2.95;;;1.90;;
28266;SDS011;15525;45.568;5.448;2022-09-12T17:33:54;3.72;;;2.00;;
28266;SDS011;15525;45.568;5.448;2022-09-12T17:36:21;2.47;;;1.70;;
28266;SDS011;15525;45.568;5.448;2022-09-12T17:38:47;3.95;;;1.80;;
28266;SDS011;15525;45.568;5.448;2022-09-12T17:41:19;2.10;;;1.90;;
28266;SDS011;15525;45.568;5.448;2022-09-12T17:43:47;3.42;;;1.90;;
28266;SDS011;15525;45.568;5.448;2022-09-12T17:46:16;2.88;;;1.73;;
28266;SDS011;15525;45.568;5.448;2022-09-12T17:48:42;3.25;;;1.77;;
28266;SDS011;15525;45.568;5.448;2022-09-12T17:51:08;3.25;;;2.28;;
28266;SDS011;15525;45.568;5.448;2022-09-12T17:53:38;2.33;;;2.00;;
28266;SDS011;15525;45.568;5.448;2022-09-12T17:56:04;4.45;;;2.00;;
28266;SDS011;15525;45.568;5.448;2022-09-12T17:58:31;2.95;;;1.90;;
28266;SDS011;15525;45.568;5.448;2022-09-12T18:01:01;6.70;;;3.17;;
28266;SDS011;15525;45.568;5.448;2022-09-12T18:04:03;5.93;;;3.58;;
28266;SDS011;15525;45.568;5.448;2022-09-12T18:06:29;5.63;;;3.33;;
28266;SDS011;15525;45.568;5.448;2022-09-12T18:08:59;3.67;;;2.90;;
28266;SDS011;15525;45.568;5.448;2022-09-12T18:11:25;5.63;;;3.10;;
28266;SDS011;15525;45.568;5.448;2022-09-12T18:13:51;3.08;;;2.45;;
28266;SDS011;15525;45.568;5.448;2022-09-12T18:16:16;3.80;;;2.40;;
28266;SDS011;15525;45.568;5.448;2022-09-12T18:18:42;2.58;;;2.28;;
28266;SDS011;15525;45.568;5.448;2022-09-12T18:21:08;4.70;;;2.20;;
28266;SDS011;15525;45.568;5.448;2022-09-12T18:23:35;3.03;;;2.60;;